Time;durP1;ratioP1;P1;durP2;ratioP2;P2;SDS_P1;SDS_P2;PMS_P1;PMS_P2;Temp;Humidity;BMP_temperature;BMP_pressure;BME280_temperature;BME280_humidity;BME280_pressure;Samples;Min_cycle;Max_cycle;Signal;HPM_P1;HPM_P2
2022/07/01 00:01:22;;;;;;;1.77;1.30;;;18.70;99.90;;;;;;5018160;28;20180;-70
2022/07/01 00:03:49;;;;;;;2.20;1.50;;;18.80;99.90;;;;;;5008720;28;20440;-71
2022/07/01 00:06:15;;;;;;;1.93;1.50;;;18.80;99.90;;;;;;5012859;28;20227;-70
2022/07/01 00:08:41;;;;;;;3.90;1.60;;;18.70;99.90;;;;;;5009776;28;20558;-71
2022/07/01 00:11:06;;;;;;;3.50;2.17;;;18.80;99.90;;;;;;5009866;28;20467;-69
2022/07/01 00:13:32;;;;;;;2.00;1.50;;;18.80;99.90;;;;;;5017048;28;20242;-69
2022/07/01 00:15:58;;;;;;;1.90;1.50;;;18.90;99.90;;;;;;5014307;28;20177;-70
2022/07/01 00:18:24;;;;;;;2.37;1.60;;;18.80;99.90;;;;;;5013389;28;20485;-71
2022/07/01 00:20:50;;;;;;;2.70;1.93;;;18.90;99.90;;;;;;5012051;28;20260;-71
2022/07/01 00:23:17;;;;;;;1.90;1.40;;;18.70;99.90;;;;;;5008349;28;20181;-71
2022/07/01 00:25:43;;;;;;;3.17;1.60;;;18.80;99.90;;;;;;5011709;28;20655;-72
2022/07/01 00:28:09;;;;;;;1.90;1.40;;;18.80;99.90;;;;;;4995495;28;21715;-71
2022/07/01 00:30:34;;;;;;;1.90;1.53;;;18.80;99.90;;;;;;5014911;28;20448;-71
2022/07/01 00:33:00;;;;;;;4.73;1.83;;;18.80;99.90;;;;;;5010789;28;20718;-71
2022/07/01 00:35:26;;;;;;;2.30;1.30;;;18.70;99.90;;;;;;5014831;28;20184;-71
2022/07/01 00:37:51;;;;;;;5.40;1.70;;;18.70;99.90;;;;;;5010904;28;20196;-71
2022/07/01 00:40:17;;;;;;;1.87;1.23;;;18.70;99.90;;;;;;5007298;28;20216;-69
2022/07/01 00:42:43;;;;;;;1.90;1.40;;;18.60;99.90;;;;;;5012491;28;20849;-69
2022/07/01 00:45:10;;;;;;;3.13;1.40;;;18.60;99.90;;;;;;5010042;28;20950;-71
2022/07/01 00:47:37;;;;;;;2.20;1.77;;;18.70;99.90;;;;;;5013215;28;20436;-71
2022/07/01 00:50:08;;;;;;;1.77;1.50;;;18.70;99.90;;;;;;5010145;28;20471;-71
2022/07/01 00:52:34;;;;;;;2.47;1.77;;;18.70;99.90;;;;;;5011557;28;20470;-71
2022/07/01 00:55:04;;;;;;;1.70;1.40;;;18.70;99.90;;;;;;5012748;28;20440;-70
2022/07/01 00:57:31;;;;;;;1.70;1.37;;;18.60;99.90;;;;;;5014280;28;20496;-71
2022/07/01 00:59:57;;;;;;;2.90;1.40;;;18.70;99.90;;;;;;5011432;28;21313;-70
2022/07/01 01:02:22;;;;;;;1.90;1.50;;;18.70;99.90;;;;;;5011401;28;20510;-70
2022/07/01 01:04:48;;;;;;;6.63;1.80;;;18.80;99.90;;;;;;5012887;28;20183;-73
2022/07/01 01:07:14;;;;;;;1.90;1.50;;;18.50;99.90;;;;;;5008315;28;20181;-71
2022/07/01 01:09:40;;;;;;;1.70;1.50;;;18.50;99.90;;;;;;4992262;28;20216;-69
2022/07/01 01:12:06;;;;;;;2.37;1.73;;;18.60;99.90;;;;;;5012244;28;20447;-70
2022/07/01 01:14:47;;;;;;;1.83;1.50;;;18.50;99.90;;;;;;5008136;28;20208;-70
2022/07/01 01:17:15;;;;;;;1.83;1.47;;;18.50;99.90;;;;;;5016106;28;20438;-71
2022/07/01 01:19:41;;;;;;;2.43;1.50;;;18.50;99.90;;;;;;5008492;28;20833;-70
2022/07/01 01:22:07;;;;;;;2.63;1.63;;;18.60;99.90;;;;;;5010269;28;20448;-70
2022/07/01 01:24:33;;;;;;;1.80;1.50;;;18.50;99.90;;;;;;5011894;28;20440;-71
2022/07/01 01:26:58;;;;;;;3.20;1.60;;;18.50;99.90;;;;;;5014243;28;20801;-71
2022/07/01 01:29:24;;;;;;;2.53;1.60;;;18.50;99.90;;;;;;5010215;28;20266;-70
2022/07/01 01:31:49;;;;;;;2.20;1.50;;;18.60;99.90;;;;;;5018685;28;20782;-71
2022/07/01 01:34:15;;;;;;;2.07;1.50;;;18.60;99.90;;;;;;5013443;28;20180;-71
2022/07/01 01:36:41;;;;;;;2.37;1.50;;;18.50;99.90;;;;;;5012899;28;20185;-71
2022/07/01 01:39:15;;;;;;;1.90;1.70;;;18.70;99.90;;;;;;5012335;28;20289;-71
2022/07/01 01:41:42;;;;;;;2.27;1.50;;;18.60;99.90;;;;;;5015491;28;20615;-72
2022/07/01 01:44:07;;;;;;;4.67;1.50;;;18.70;99.90;;;;;;5015646;28;20501;-71
2022/07/01 01:46:34;;;;;;;1.90;1.40;;;18.60;99.90;;;;;;5016900;28;20432;-72
2022/07/01 01:49:00;;;;;;;2.30;1.60;;;18.60;99.90;;;;;;5018515;28;20215;-71
2022/07/01 01:51:27;;;;;;;6.80;1.63;;;18.60;99.90;;;;;;5018944;28;20825;-71
2022/07/01 01:53:52;;;;;;;2.83;1.50;;;18.60;99.90;;;;;;5014856;28;20440;-71
2022/07/01 01:56:18;;;;;;;2.00;1.50;;;18.60;99.90;;;;;;5019755;28;20975;-71
2022/07/01 01:58:44;;;;;;;2.07;1.50;;;18.40;99.90;;;;;;5018891;28;20475;-71
2022/07/01 02:01:11;;;;;;;3.27;1.60;;;18.50;99.90;;;;;;5017810;28;20176;-70
2022/07/01 02:03:39;;;;;;;2.90;1.50;;;18.40;99.90;;;;;;5012482;28;20181;-70
2022/07/01 02:06:06;;;;;;;2.20;1.90;;;18.50;99.90;;;;;;5018597;28;20428;-70
2022/07/01 02:08:32;;;;;;;1.83;1.60;;;18.70;99.90;;;;;;4999576;28;21228;-70
2022/07/01 02:10:58;;;;;;;1.70;1.40;;;18.80;99.90;;;;;;5014839;28;20424;-70
2022/07/01 02:13:24;;;;;;;2.10;1.70;;;18.80;99.90;;;;;;5017295;28;20188;-70
2022/07/01 02:15:50;;;;;;;3.90;1.90;;;18.80;99.90;;;;;;5015484;28;20852;-70
2022/07/01 02:18:16;;;;;;;2.30;1.77;;;18.80;99.90;;;;;;5014987;28;20524;-70
2022/07/01 02:20:42;;;;;;;2.13;1.57;;;18.60;99.90;;;;;;5013100;28;20459;-70
2022/07/01 02:23:08;;;;;;;4.10;1.50;;;18.60;99.90;;;;;;5013142;28;20188;-70
2022/07/01 02:25:35;;;;;;;4.20;1.80;;;18.50;99.90;;;;;;5018396;28;20760;-71
2022/07/01 02:28:00;;;;;;;2.50;1.63;;;18.50;99.90;;;;;;5015689;28;20468;-71
2022/07/01 02:30:27;;;;;;;1.90;1.50;;;18.50;99.90;;;;;;5015162;28;20927;-70
2022/07/01 02:32:53;;;;;;;2.43;1.57;;;18.50;99.90;;;;;;5013717;28;20189;-69
2022/07/01 02:35:18;;;;;;;2.10;1.70;;;18.40;99.90;;;;;;5014471;28;20431;-70
2022/07/01 02:37:44;;;;;;;2.00;1.70;;;18.40;99.90;;;;;;5012060;28;20622;-69
2022/07/01 02:40:11;;;;;;;2.37;1.50;;;18.40;99.90;;;;;;5013110;28;20459;-71
2022/07/01 02:42:37;;;;;;;2.00;1.57;;;18.40;99.90;;;;;;5013847;28;20335;-71
2022/07/01 02:45:08;;;;;;;2.60;1.53;;;18.50;99.90;;;;;;5011835;28;20592;-69
2022/07/01 02:47:38;;;;;;;2.00;1.63;;;18.40;99.90;;;;;;5015759;28;20211;-69
2022/07/01 02:50:06;;;;;;;2.53;1.57;;;18.40;99.90;;;;;;5011869;28;20466;-69
2022/07/01 02:52:34;;;;;;;1.90;1.70;;;18.20;99.90;;;;;;5014082;28;20693;-70
2022/07/01 02:55:03;;;;;;;2.30;1.60;;;18.10;99.90;;;;;;5011345;28;20525;-71
2022/07/01 02:57:29;;;;;;;2.73;1.70;;;18.20;99.90;;;;;;5017525;28;20960;-70
2022/07/01 03:00:00;;;;;;;1.90;1.50;;;18.20;99.90;;;;;;5011330;28;20984;-70
2022/07/01 03:02:25;;;;;;;2.67;1.60;;;18.20;99.90;;;;;;5010747;28;20964;-72
2022/07/01 03:04:52;;;;;;;7.50;2.03;;;18.30;99.90;;;;;;5015456;28;20458;-69
2022/07/01 03:07:19;;;;;;;1.90;1.67;;;18.20;99.90;;;;;;5016192;28;20176;-69
2022/07/01 03:09:45;;;;;;;2.73;1.67;;;18.10;99.90;;;;;;5016706;28;20455;-69
2022/07/01 03:12:24;;;;;;;10.30;2.27;;;18.10;99.90;;;;;;5018567;28;20430;-70
2022/07/01 03:14:55;;;;;;;2.37;1.90;;;17.90;99.90;;;;;;5016703;28;20172;-69
2022/07/01 03:17:21;;;;;;;2.03;1.80;;;18.00;99.90;;;;;;5010662;28;20463;-69
2022/07/01 03:19:47;;;;;;;3.60;1.90;;;17.90;99.90;;;;;;5016740;28;20517;-71
2022/07/01 03:22:13;;;;;;;4.17;2.00;;;17.90;99.90;;;;;;5015291;28;20431;-70
2022/07/01 03:24:38;;;;;;;2.03;1.60;;;17.90;99.90;;;;;;5011447;28;20187;-69
2022/07/01 03:27:04;;;;;;;3.50;1.80;;;18.00;99.90;;;;;;5015994;28;20431;-70
2022/07/01 03:29:30;;;;;;;2.77;1.73;;;18.00;99.90;;;;;;5014456;28;20308;-71
2022/07/01 03:31:55;;;;;;;2.53;2.07;;;18.00;99.90;;;;;;5009036;28;20182;-71
2022/07/01 03:34:21;;;;;;;5.20;1.80;;;18.10;99.90;;;;;;5009358;28;20194;-70
2022/07/01 03:36:46;;;;;;;6.33;1.83;;;18.10;99.90;;;;;;5017329;28;20189;-70
2022/07/01 03:39:12;;;;;;;5.40;1.87;;;17.90;99.90;;;;;;5010524;28;20304;-70
2022/07/01 03:41:38;;;;;;;3.33;1.90;;;17.90;99.90;;;;;;5012797;28;20186;-70
2022/07/01 03:44:03;;;;;;;2.17;1.97;;;18.00;99.90;;;;;;5011164;28;20282;-70
2022/07/01 03:46:31;;;;;;;2.60;1.90;;;18.00;99.90;;;;;;5010334;28;20263;-70
2022/07/01 03:48:57;;;;;;;2.83;2.10;;;17.80;99.90;;;;;;5009604;28;20324;-70
2022/07/01 03:51:23;;;;;;;4.57;1.97;;;17.90;99.90;;;;;;5015829;28;20815;-69
2022/07/01 03:56:32;;;;;;;4.60;2.07;;;17.80;99.90;;;;;;5013656;28;20255;-70
2022/07/01 03:58:58;;;;;;;3.50;2.20;;;17.80;99.90;;;;;;5012323;28;20476;-70
2022/07/01 04:01:24;;;;;;;2.07;1.70;;;17.80;99.90;;;;;;5002187;28;20211;-70
2022/07/01 04:03:49;;;;;;;4.00;2.03;;;18.00;99.90;;;;;;5012355;28;20220;-70
2022/07/01 04:06:15;;;;;;;1.87;1.60;;;18.00;99.90;;;;;;5017293;28;20669;-70
2022/07/01 04:08:41;;;;;;;4.23;1.97;;;18.10;99.90;;;;;;5015275;28;20207;-70
2022/07/01 04:11:08;;;;;;;1.90;1.60;;;18.20;99.90;;;;;;5015624;28;20864;-70
2022/07/01 04:13:36;;;;;;;1.80;1.53;;;18.00;99.90;;;;;;5011071;28;20267;-70
2022/07/01 04:16:02;;;;;;;2.80;1.83;;;18.00;99.90;;;;;;5012823;28;20432;-70
2022/07/01 04:18:29;;;;;;;2.17;1.63;;;17.90;99.90;;;;;;5011629;28;20460;-70
2022/07/01 04:23:39;;;;;;;2.23;1.67;;;18.00;99.90;;;;;;5013323;28;21383;-70
2022/07/01 04:26:04;;;;;;;2.43;1.63;;;18.00;99.90;;;;;;5012657;28;20436;-70
2022/07/01 04:28:30;;;;;;;2.63;1.50;;;18.20;99.90;;;;;;5014066;28;20199;-70
2022/07/01 04:30:55;;;;;;;2.20;1.70;;;18.00;99.90;;;;;;5011023;28;20198;-71
2022/07/01 04:33:21;;;;;;;2.83;1.50;;;17.80;99.90;;;;;;5015651;28;20200;-70
2022/07/01 04:35:47;;;;;;;3.53;1.80;;;17.80;99.90;;;;;;5011088;28;20179;-70
2022/07/01 04:38:12;;;;;;;3.77;1.60;;;17.80;99.90;;;;;;5009746;28;20243;-70
2022/07/01 04:40:38;;;;;;;1.97;1.43;;;17.90;99.90;;;;;;5014850;28;20648;-70
2022/07/01 04:43:03;;;;;;;2.93;1.70;;;18.00;99.90;;;;;;5012284;28;20216;-71
2022/07/01 04:45:29;;;;;;;3.30;1.83;;;17.90;99.90;;;;;;5013782;28;20174;-71
2022/07/01 04:47:54;;;;;;;2.20;1.90;;;17.80;99.90;;;;;;5015916;28;20189;-70
2022/07/01 04:50:20;;;;;;;2.33;1.70;;;17.60;99.90;;;;;;5011217;28;20220;-70
2022/07/01 04:52:47;;;;;;;1.77;1.47;;;17.60;99.90;;;;;;5013446;28;20205;-70
2022/07/01 04:55:13;;;;;;;2.90;1.57;;;17.60;99.90;;;;;;5009533;28;20976;-72
2022/07/01 04:57:38;;;;;;;2.50;1.53;;;17.70;99.90;;;;;;5008391;28;20463;-69
2022/07/01 05:00:04;;;;;;;2.30;1.97;;;17.70;99.90;;;;;;5010475;28;20644;-70
2022/07/01 05:02:30;;;;;;;2.30;1.90;;;17.60;99.90;;;;;;5022073;28;20180;-70
2022/07/01 05:04:55;;;;;;;3.73;2.03;;;17.60;99.90;;;;;;5019698;28;20942;-70
2022/07/01 05:07:31;;;;;;;2.47;1.93;;;17.60;99.90;;;;;;5019183;28;20787;-70
2022/07/01 05:09:58;;;;;;;4.03;2.27;;;17.60;99.90;;;;;;5016727;28;20206;-70
2022/07/01 05:12:24;;;;;;;2.40;1.97;;;17.60;99.90;;;;;;5021846;28;20431;-70
2022/07/01 05:14:50;;;;;;;3.00;2.00;;;17.70;99.90;;;;;;5019303;28;20456;-71
2022/07/01 05:17:16;;;;;;;4.07;1.97;;;17.60;99.90;;;;;;5020636;28;20459;-71
2022/07/01 05:22:26;;;;;;;3.60;2.43;;;17.60;99.90;;;;;;5020416;28;20446;-70
2022/07/01 05:24:52;;;;;;;3.93;2.50;;;17.70;99.90;;;;;;5017992;28;20444;-70
2022/07/01 05:27:17;;;;;;;2.73;1.93;;;17.80;99.90;;;;;;5022206;28;20588;-71
2022/07/01 05:29:43;;;;;;;2.27;1.83;;;17.70;99.90;;;;;;5022450;28;20219;-70
2022/07/01 05:32:09;;;;;;;6.33;2.50;;;17.60;99.90;;;;;;5017553;28;20662;-71
2022/07/01 05:34:35;;;;;;;3.77;2.10;;;17.60;99.90;;;;;;5018034;28;20189;-71
2022/07/01 05:37:01;;;;;;;2.80;2.07;;;17.50;99.90;;;;;;5019048;28;20613;-71
2022/07/01 05:39:27;;;;;;;6.53;2.47;;;17.70;99.90;;;;;;5015613;28;20474;-71
2022/07/01 05:41:52;;;;;;;2.93;2.13;;;17.70;99.90;;;;;;5021020;28;20316;-70
2022/07/01 05:44:18;;;;;;;3.23;2.40;;;17.70;99.90;;;;;;5019756;28;20357;-71
2022/07/01 05:46:43;;;;;;;2.53;2.27;;;17.70;99.90;;;;;;5017989;28;20235;-70
2022/07/01 05:49:09;;;;;;;2.83;2.40;;;17.70;99.90;;;;;;5019952;28;20677;-71
2022/07/01 05:51:35;;;;;;;2.37;2.13;;;17.70;99.90;;;;;;5016697;28;20184;-70
2022/07/01 05:54:00;;;;;;;3.30;2.20;;;17.70;99.90;;;;;;5021588;28;20189;-69
2022/07/01 05:56:26;;;;;;;3.20;2.53;;;17.60;99.90;;;;;;5015436;28;20185;-69
2022/07/01 05:58:52;;;;;;;3.80;2.80;;;17.60;99.90;;;;;;5018574;28;20254;-69
2022/07/01 06:01:18;;;;;;;2.87;2.57;;;17.70;99.90;;;;;;5013273;28;20211;-70
2022/07/01 06:03:44;;;;;;;3.27;2.90;;;17.80;99.90;;;;;;5013919;28;20934;-69
2022/07/01 06:06:09;;;;;;;3.30;2.57;;;17.60;99.90;;;;;;5014577;28;20238;-70
2022/07/01 06:08:35;;;;;;;3.70;2.60;;;17.50;99.90;;;;;;5016787;28;20655;-70
2022/07/01 06:11:01;;;;;;;3.87;2.53;;;17.50;99.90;;;;;;5018480;28;20199;-69
2022/07/01 06:13:28;;;;;;;3.80;2.73;;;17.50;99.90;;;;;;5010663;28;20189;-70
2022/07/01 06:15:54;;;;;;;4.57;2.83;;;17.50;99.90;;;;;;4996356;28;20192;-70
2022/07/01 06:18:20;;;;;;;4.67;2.80;;;17.30;99.90;;;;;;5014901;28;20455;-70
2022/07/01 06:20:45;;;;;;;6.10;2.70;;;17.40;99.90;;;;;;5010640;28;20207;-70
2022/07/01 06:23:11;;;;;;;3.73;2.53;;;17.50;99.90;;;;;;5014667;28;20625;-70
2022/07/01 06:25:36;;;;;;;3.27;2.97;;;17.50;99.90;;;;;;5015531;28;20196;-70
2022/07/01 06:28:02;;;;;;;4.20;3.10;;;17.60;99.90;;;;;;5015284;28;20192;-70
2022/07/01 06:30:28;;;;;;;3.77;3.13;;;17.70;99.90;;;;;;5012777;28;20258;-68
2022/07/01 06:32:53;;;;;;;5.20;3.67;;;17.80;99.90;;;;;;5013843;28;20189;-69
2022/07/01 06:35:19;;;;;;;5.80;3.47;;;17.80;99.90;;;;;;5015500;28;20200;-69
2022/07/01 06:37:44;;;;;;;4.47;3.63;;;17.70;99.90;;;;;;5011693;28;22494;-69
2022/07/01 06:40:10;;;;;;;4.80;3.30;;;17.60;99.90;;;;;;5013755;28;20220;-70
2022/07/01 06:42:36;;;;;;;7.10;3.90;;;17.70;99.90;;;;;;5013441;28;20180;-69
2022/07/01 06:45:01;;;;;;;6.10;4.17;;;17.60;99.90;;;;;;5013322;28;20188;-69
2022/07/01 06:47:27;;;;;;;5.27;3.50;;;17.80;99.90;;;;;;5013489;28;20191;-70
2022/07/01 06:49:53;;;;;;;4.50;3.33;;;18.00;99.90;;;;;;5008467;28;20379;-70
2022/07/01 06:52:19;;;;;;;7.43;3.83;;;18.00;99.90;;;;;;5008900;28;21357;-70
2022/07/01 06:54:44;;;;;;;4.70;3.60;;;17.90;99.90;;;;;;5013585;28;20186;-70
2022/07/01 06:57:10;;;;;;;5.70;3.27;;;17.80;99.90;;;;;;5012164;28;20197;-70
2022/07/01 06:59:35;;;;;;;6.97;5.00;;;17.80;99.90;;;;;;5012684;28;20344;-67
2022/07/01 07:02:01;;;;;;;5.00;3.30;;;17.80;99.90;;;;;;5011412;28;20730;-67
2022/07/01 07:04:26;;;;;;;7.00;3.87;;;17.70;99.90;;;;;;5027613;28;20705;-67
2022/07/01 07:06:52;;;;;;;3.70;3.23;;;17.70;99.90;;;;;;5012255;28;20185;-67
2022/07/01 07:09:18;;;;;;;3.67;3.00;;;17.80;99.90;;;;;;5013996;28;20205;-66
2022/07/01 07:11:43;;;;;;;5.83;3.40;;;17.80;99.90;;;;;;5010719;28;20276;-67
2022/07/01 07:14:09;;;;;;;3.90;3.40;;;17.90;99.90;;;;;;5012657;28;20546;-66
2022/07/01 07:16:34;;;;;;;6.83;3.80;;;17.80;99.90;;;;;;5013279;28;20292;-65
2022/07/01 07:19:00;;;;;;;4.43;3.20;;;17.80;99.90;;;;;;5009293;28;20231;-65
2022/07/01 07:21:25;;;;;;;4.70;3.10;;;17.80;99.90;;;;;;5016082;28;20185;-65
2022/07/01 07:23:51;;;;;;;3.70;3.00;;;17.80;99.90;;;;;;5012956;28;20559;-66
2022/07/01 07:26:17;;;;;;;3.77;3.40;;;17.80;99.90;;;;;;5014234;28;20180;-66
2022/07/01 07:28:43;;;;;;;4.07;3.07;;;17.80;99.90;;;;;;5012099;28;20785;-66
2022/07/01 07:31:08;;;;;;;3.47;2.90;;;17.70;99.90;;;;;;5011725;28;20201;-68
2022/07/01 07:33:34;;;;;;;6.60;3.20;;;17.80;99.90;;;;;;5014347;28;20890;-68
2022/07/01 07:35:59;;;;;;;8.03;2.90;;;17.90;99.90;;;;;;5002453;28;20635;-68
2022/07/01 07:38:25;;;;;;;6.10;2.60;;;18.00;99.90;;;;;;5009737;28;20217;-68
2022/07/01 07:40:50;;;;;;;4.00;2.70;;;18.00;99.90;;;;;;5011666;28;20182;-68
2022/07/01 07:43:16;;;;;;;8.13;3.40;;;17.90;99.90;;;;;;5013317;28;20219;-67
2022/07/01 07:45:41;;;;;;;3.93;2.70;;;17.80;99.90;;;;;;5012039;28;20663;-67
2022/07/01 07:48:09;;;;;;;6.90;3.30;;;17.90;99.90;;;;;;5013370;28;20196;-67
2022/07/01 07:50:35;;;;;;;6.43;3.13;;;17.80;99.90;;;;;;5010041;28;20224;-67
2022/07/01 07:53:00;;;;;;;4.30;3.03;;;18.00;99.90;;;;;;5011110;28;20436;-67
2022/07/01 07:55:27;;;;;;;3.50;2.33;;;17.90;99.90;;;;;;5014114;28;20511;-67
2022/07/01 07:57:54;;;;;;;3.03;2.40;;;17.90;99.90;;;;;;5015888;28;20748;-66
2022/07/01 08:00:19;;;;;;;3.50;2.53;;;17.80;99.90;;;;;;5010375;28;20447;-66
2022/07/01 08:02:46;;;;;;;3.20;2.40;;;17.70;99.90;;;;;;5010184;28;20514;-67
2022/07/01 08:05:12;;;;;;;4.60;2.73;;;17.70;99.90;;;;;;5009231;28;20181;-67
2022/07/01 08:07:39;;;;;;;4.80;2.83;;;17.70;99.90;;;;;;5010829;28;20485;-66
2022/07/01 08:10:07;;;;;;;5.87;2.87;;;17.60;99.90;;;;;;5014140;28;20217;-67
2022/07/01 08:12:33;;;;;;;4.73;2.47;;;17.60;99.90;;;;;;5014369;28;20816;-68
2022/07/01 08:14:59;;;;;;;4.50;2.53;;;17.60;99.90;;;;;;5012981;28;20455;-68
2022/07/01 08:17:24;;;;;;;5.30;3.37;;;17.60;99.90;;;;;;5009986;28;20247;-68
2022/07/01 08:19:50;;;;;;;8.40;3.60;;;17.50;99.90;;;;;;5011962;28;20757;-69
2022/07/01 08:22:16;;;;;;;4.00;2.60;;;17.60;99.90;;;;;;5014471;28;20187;-70
2022/07/01 08:24:42;;;;;;;5.33;2.80;;;17.60;99.90;;;;;;5020175;28;20196;-70
2022/07/01 08:27:08;;;;;;;4.73;2.77;;;17.60;99.90;;;;;;5011883;28;20569;-69
2022/07/01 08:29:33;;;;;;;3.13;2.80;;;17.70;99.90;;;;;;5011897;28;20212;-68
2022/07/01 08:31:59;;;;;;;4.30;2.83;;;17.70;99.90;;;;;;5011999;28;20513;-69
2022/07/01 08:34:24;;;;;;;4.20;2.80;;;17.90;99.90;;;;;;5014145;28;20188;-68
2022/07/01 08:36:50;;;;;;;3.37;2.77;;;17.80;99.90;;;;;;5008917;28;20549;-68
2022/07/01 08:39:16;;;;;;;3.43;2.70;;;17.90;99.90;;;;;;5009700;28;20295;-69
2022/07/01 08:41:41;;;;;;;3.80;2.90;;;18.00;99.90;;;;;;5012908;28;20192;-66
2022/07/01 08:44:08;;;;;;;2.93;2.30;;;17.90;99.90;;;;;;5015062;28;20181;-68
2022/07/01 08:46:35;;;;;;;5.77;3.53;;;18.10;99.90;;;;;;5011373;28;20527;-68
2022/07/01 08:49:01;;;;;;;3.30;2.80;;;18.10;99.90;;;;;;5013044;28;20486;-66
2022/07/01 08:51:27;;;;;;;6.37;3.43;;;18.40;99.90;;;;;;5012129;28;20458;-69
2022/07/01 08:53:52;;;;;;;3.00;2.67;;;18.50;99.90;;;;;;5010484;28;20440;-68
2022/07/01 08:59:02;;;;;;;2.90;2.57;;;18.60;99.90;;;;;;5009991;28;20231;-70
2022/07/01 09:01:28;;;;;;;2.90;2.33;;;18.80;99.90;;;;;;5012183;28;20432;-70
2022/07/01 09:03:55;;;;;;;3.00;2.40;;;18.80;99.90;;;;;;5008858;28;20564;-68
2022/07/01 09:06:25;;;;;;;3.33;2.30;;;18.90;99.90;;;;;;5010770;28;20615;-67
2022/07/01 09:08:51;;;;;;;2.97;2.27;;;18.80;99.90;;;;;;5010304;28;20520;-66
2022/07/01 09:11:24;;;;;;;2.90;2.30;;;18.80;99.90;;;;;;5013856;28;20526;-64
2022/07/01 09:14:07;;;;;;;5.40;2.67;;;18.90;99.90;;;;;;5008228;28;20200;-65
2022/07/01 09:16:41;;;;;;;4.40;2.30;;;19.00;99.90;;;;;;5012767;28;20466;-65
2022/07/01 09:19:07;;;;;;;3.03;2.70;;;19.10;99.90;;;;;;5009144;28;20883;-67
2022/07/01 09:21:32;;;;;;;2.67;2.20;;;19.10;99.90;;;;;;5010555;28;20475;-66
2022/07/01 09:24:02;;;;;;;5.40;2.57;;;19.20;99.90;;;;;;5015549;28;20186;-66
2022/07/01 09:26:28;;;;;;;2.87;2.20;;;19.20;99.90;;;;;;5014142;28;20616;-67
2022/07/01 09:28:55;;;;;;;2.93;2.30;;;19.40;99.90;;;;;;5009076;28;20549;-67
2022/07/01 09:31:21;;;;;;;3.30;2.57;;;19.50;99.90;;;;;;5006919;28;20250;-66
2022/07/01 09:34:06;;;;;;;3.00;2.47;;;19.70;99.90;;;;;;4991486;28;20595;-66
2022/07/01 09:36:32;;;;;;;2.63;2.10;;;19.80;99.90;;;;;;5008290;28;20518;-66
2022/07/01 09:39:03;;;;;;;2.50;2.03;;;19.60;99.90;;;;;;5009294;28;20470;-66
2022/07/01 09:41:35;;;;;;;3.10;2.10;;;19.50;99.90;;;;;;5002309;28;20436;-66
2022/07/01 09:44:08;;;;;;;2.83;2.40;;;19.50;99.90;;;;;;5010896;28;20428;-66
2022/07/01 09:46:34;;;;;;;3.83;2.20;;;19.40;99.90;;;;;;5009188;28;20515;-66
2022/07/01 09:49:00;;;;;;;5.00;3.70;;;19.50;99.90;;;;;;5012905;28;20473;-67
2022/07/01 09:51:26;;;;;;;3.10;2.67;;;19.70;99.90;;;;;;5011985;28;20541;-67
2022/07/01 09:53:51;;;;;;;4.60;2.80;;;19.80;99.90;;;;;;5015693;28;20434;-66
2022/07/01 09:56:18;;;;;;;3.90;2.33;;;19.70;99.90;;;;;;5014646;28;20181;-66
2022/07/01 09:58:45;;;;;;;4.03;2.30;;;19.60;99.90;;;;;;5014126;28;20205;-66
2022/07/01 10:01:13;;;;;;;3.30;2.30;;;19.70;99.90;;;;;;5012122;28;20447;-68
2022/07/01 10:03:39;;;;;;;2.97;2.43;;;19.70;99.90;;;;;;5014188;28;20494;-67
2022/07/01 10:06:46;;;;;;;2.57;2.37;;;20.00;99.90;;;;;;5016744;28;20466;-67
2022/07/01 10:09:50;;;;;;;3.17;2.23;;;20.10;99.90;;;;;;5017550;28;20687;-66
2022/07/01 10:12:36;;;;;;;2.23;2.03;;;20.30;99.90;;;;;;4974952;28;20525;-66
2022/07/01 10:15:04;;;;;;;3.00;2.40;;;20.40;99.90;;;;;;5016868;28;20439;-67
2022/07/01 10:17:34;;;;;;;2.90;2.13;;;20.40;99.90;;;;;;5015673;28;20444;-67
2022/07/01 10:20:11;;;;;;;6.03;2.60;;;20.60;99.90;;;;;;5015048;28;20883;-68
2022/07/01 10:22:38;;;;;;;2.50;2.30;;;20.60;99.90;;;;;;5016593;28;21317;-66
2022/07/01 10:25:29;;;;;;;3.00;2.30;;;20.70;99.90;;;;;;5015771;28;20790;-66
2022/07/01 10:28:20;;;;;;;3.83;2.30;;;20.80;99.90;;;;;;5015390;28;20929;-66
2022/07/01 10:30:49;;;;;;;4.90;2.13;;;20.70;99.90;;;;;;5017088;28;20956;-66
2022/07/01 10:33:38;;;;;;;2.57;2.10;;;20.60;99.90;;;;;;5018209;28;20484;-67
2022/07/01 10:36:05;;;;;;;2.70;2.10;;;20.60;99.90;;;;;;5013998;28;20455;-66
2022/07/01 10:38:31;;;;;;;4.93;3.53;;;20.40;99.90;;;;;;5011608;28;20993;-67
2022/07/01 10:41:09;;;;;;;3.30;2.77;;;20.70;99.90;;;;;;5015132;28;20428;-67
2022/07/01 10:43:36;;;;;;;3.60;2.30;;;20.70;99.90;;;;;;5015445;28;20173;-67
2022/07/01 10:46:01;;;;;;;5.60;2.50;;;20.70;99.90;;;;;;5004646;28;20522;-67
2022/07/01 10:48:31;;;;;;;3.30;2.20;;;20.90;99.90;;;;;;5012775;28;20446;-67
2022/07/01 10:50:56;;;;;;;3.07;2.47;;;21.10;99.90;;;;;;5015143;28;20843;-67
2022/07/01 10:53:22;;;;;;;6.20;2.77;;;21.00;99.90;;;;;;5010941;28;20432;-67
2022/07/01 10:55:51;;;;;;;2.80;2.07;;;21.20;99.90;;;;;;5011126;28;20180;-67
2022/07/01 10:58:20;;;;;;;4.80;2.50;;;21.50;99.90;;;;;;5013886;28;20468;-64
2022/07/01 11:00:50;;;;;;;2.80;2.20;;;21.50;99.90;;;;;;5014156;28;20443;-64
2022/07/01 11:03:18;;;;;;;3.70;3.40;;;21.40;99.90;;;;;;5014703;28;20431;-64
2022/07/01 11:05:45;;;;;;;3.70;2.90;;;21.40;99.90;;;;;;5013298;28;20503;-64
2022/07/01 11:08:11;;;;;;;2.27;1.97;;;21.20;99.90;;;;;;5010261;28;20475;-64
2022/07/01 11:10:39;;;;;;;3.37;2.40;;;21.10;99.90;;;;;;5012846;28;20452;-64
2022/07/01 11:13:05;;;;;;;3.80;2.20;;;21.20;99.90;;;;;;5015207;28;20435;-63
2022/07/01 11:15:31;;;;;;;3.10;2.03;;;21.20;99.90;;;;;;5014449;28;20831;-65
2022/07/01 11:17:58;;;;;;;2.33;2.10;;;21.30;99.90;;;;;;5017766;28;20634;-63
2022/07/01 11:20:25;;;;;;;2.30;1.90;;;21.10;99.90;;;;;;5012121;28;20220;-64
2022/07/01 11:22:51;;;;;;;2.33;1.93;;;21.30;99.90;;;;;;5013140;28;20446;-63
2022/07/01 11:25:18;;;;;;;3.80;2.30;;;21.50;99.90;;;;;;5014703;28;20440;-62
2022/07/01 11:27:49;;;;;;;3.70;2.07;;;21.70;99.90;;;;;;5016568;28;20423;-65
2022/07/01 11:30:16;;;;;;;2.03;1.83;;;22.30;99.90;;;;;;5016096;28;20479;-63
2022/07/01 11:32:51;;;;;;;2.40;2.13;;;22.70;99.90;;;;;;5017460;28;20521;-64
2022/07/01 11:41:02;;;;;;;2.70;2.33;;;22.80;99.90;;;;;;5010081;28;20527;-64
2022/07/01 11:43:31;;;;;;;2.40;2.20;;;22.70;99.90;;;;;;5011454;28;20435;-64
2022/07/01 11:46:01;;;;;;;2.50;2.30;;;22.60;99.90;;;;;;5015731;28;20423;-64
2022/07/01 11:48:45;;;;;;;2.77;2.47;;;22.70;99.90;;;;;;5011543;28;20478;-65
2022/07/01 11:51:15;;;;;;;2.13;1.93;;;22.60;99.90;;;;;;5013245;28;20439;-64
2022/07/01 11:53:43;;;;;;;3.90;2.43;;;22.60;99.90;;;;;;5014757;28;20443;-63
2022/07/01 11:56:10;;;;;;;2.00;1.80;;;22.60;99.90;;;;;;5010475;28;20442;-64
2022/07/01 11:58:46;;;;;;;2.87;2.00;;;22.60;99.90;;;;;;5012412;28;20490;-64
2022/07/01 12:01:30;;;;;;;3.87;2.80;;;22.60;99.90;;;;;;5016100;28;20429;-64
2022/07/01 12:03:58;;;;;;;4.30;2.33;;;22.70;99.90;;;;;;5012913;28;20433;-64
2022/07/01 12:06:24;;;;;;;3.77;2.30;;;22.90;99.90;;;;;;5015486;28;20502;-63
2022/07/01 12:08:51;;;;;;;2.20;2.00;;;23.00;99.90;;;;;;5009672;28;21031;-63
2022/07/01 12:11:17;;;;;;;2.10;1.90;;;22.80;99.90;;;;;;4997212;28;20447;-62
2022/07/01 12:13:46;;;;;;;6.60;2.33;;;23.10;99.90;;;;;;5013394;28;21118;-64
2022/07/01 12:16:12;;;;;;;2.30;2.10;;;23.40;99.90;;;;;;5000064;28;20976;-66
2022/07/01 12:18:38;;;;;;;2.80;2.40;;;23.60;99.90;;;;;;5014390;28;20470;-65
2022/07/01 12:21:04;;;;;;;2.70;2.47;;;23.30;99.90;;;;;;5013240;28;21245;-65
2022/07/01 12:23:32;;;;;;;4.07;2.53;;;23.40;99.90;;;;;;5015349;28;20184;-64
2022/07/01 12:25:58;;;;;;;2.53;2.33;;;23.60;99.90;;;;;;5014769;28;20431;-63
2022/07/01 12:28:28;;;;;;;3.10;2.80;;;23.50;99.90;;;;;;5013464;28;21268;-65
2022/07/01 12:31:08;;;;;;;3.23;2.53;;;23.90;99.90;;;;;;5006990;28;20463;-65
2022/07/01 12:33:39;;;;;;;2.53;2.33;;;23.90;99.90;;;;;;4995047;28;20436;-65
2022/07/01 12:36:07;;;;;;;3.80;2.50;;;24.60;99.90;;;;;;5012425;28;20446;-65
2022/07/01 12:38:33;;;;;;;6.67;2.40;;;24.70;99.90;;;;;;5014356;28;20999;-67
2022/07/01 12:40:59;;;;;;;2.60;2.40;;;24.50;99.90;;;;;;5012140;28;20513;-68
2022/07/01 12:43:31;;;;;;;4.10;2.20;;;25.40;99.90;;;;;;5011991;28;21254;-68
2022/07/01 12:46:00;;;;;;;2.43;2.23;;;26.10;99.90;;;;;;5011659;28;20182;-68
2022/07/01 12:48:26;;;;;;;2.80;2.40;;;27.30;99.90;;;;;;5009493;28;20455;-63
2022/07/01 12:50:53;;;;;;;2.33;2.13;;;29.60;99.10;;;;;;5009976;28;20451;-64
2022/07/01 12:53:21;;;;;;;3.67;2.80;;;30.40;92.00;;;;;;5011223;28;20444;-66
2022/07/01 12:55:55;;;;;;;3.17;2.13;;;31.20;85.70;;;;;;5011887;28;20835;-66
2022/07/01 12:58:26;;;;;;;2.50;2.30;;;31.90;79.70;;;;;;5011708;28;20462;-65
2022/07/01 13:00:55;;;;;;;2.97;2.20;;;32.30;73.10;;;;;;5009787;28;20455;-65
2022/07/01 13:03:22;;;;;;;2.23;2.03;;;32.10;71.60;;;;;;5014030;28;20419;-66
2022/07/01 13:05:49;;;;;;;7.93;7.23;;;32.90;69.40;;;;;;5007522;28;20438;-64